Jerez, Spain
Current Conditions -  °F | °C
As of 8:00 AM on Friday 28 Nov 2014 (Local Time) from LEJR Reporting Station
Broken Clouds Broken Clouds  
Wind Chill: 55°   Ceiling: 6000
Heat Index: 55°   Visibility: 6mi
Dew Point: 55°   Wind: 3mph
Humidity: 100%   Direction: 170°S
Pressure: 29.06"   Gusts: NA
Location:  36.69°N, 6.14°W
Report Text: LEJR 280700Z 17003KT 140V200 9999 FEW006 SCT025 BKN060 13/13 Q0984
Loading
Personal Weather Stations






























Interactive Weather Map New forecast layout! Learn more

10-Day Weather Forecast

Advertisements
Track Severe Weather on mobile